sensor_id;sensor_type;location;lat;lon;timestamp;temperature;humidity
69436;SHT31;56625;54.322;18.582;2023-02-28T00:01:26;-3.86;84.31
69436;SHT31;56625;54.322;18.582;2023-02-28T00:03:54;-3.88;84.15
69436;SHT31;56625;54.322;18.582;2023-02-28T00:06:20;-3.91;84.14
69436;SHT31;56625;54.322;18.582;2023-02-28T00:08:47;-3.92;84.42
69436;SHT31;56625;54.322;18.582;2023-02-28T00:11:15;-3.91;84.60
69436;SHT31;56625;54.322;18.582;2023-02-28T00:13:44;-3.90;84.59
69436;SHT31;56625;54.322;18.582;2023-02-28T00:16:17;-3.92;84.46
69436;SHT31;56625;54.322;18.582;2023-02-28T00:18:46;-3.95;84.31
69436;SHT31;56625;54.322;18.582;2023-02-28T00:21:14;-3.95;84.41
69436;SHT31;56625;54.322;18.582;2023-02-28T00:23:43;-3.93;84.59
69436;SHT31;56625;54.322;18.582;2023-02-28T00:26:09;-3.95;84.38
69436;SHT31;56625;54.322;18.582;2023-02-28T00:28:36;-3.97;84.21
69436;SHT31;56625;54.322;18.582;2023-02-28T00:31:03;-4.01;84.09
69436;SHT31;56625;54.322;18.582;2023-02-28T00:33:30;-4.04;84.02
69436;SHT31;56625;54.322;18.582;2023-02-28T00:36:04;-4.08;84.01
69436;SHT31;56625;54.322;18.582;2023-02-28T00:38:34;-4.10;84.22
69436;SHT31;56625;54.322;18.582;2023-02-28T00:41:00;-4.12;84.30
69436;SHT31;56625;54.322;18.582;2023-02-28T00:43:34;-4.14;84.32
69436;SHT31;56625;54.322;18.582;2023-02-28T00:46:02;-4.16;84.35
69436;SHT31;56625;54.322;18.582;2023-02-28T00:48:30;-4.18;84.41
69436;SHT31;56625;54.322;18.582;2023-02-28T00:50:58;-4.22;84.47
69436;SHT31;56625;54.322;18.582;2023-02-28T00:53:24;-4.24;84.26
69436;SHT31;56625;54.322;18.582;2023-02-28T00:55:51;-4.29;84.17
69436;SHT31;56625;54.322;18.582;2023-02-28T00:58:18;-4.34;83.96
69436;SHT31;56625;54.322;18.582;2023-02-28T01:00:45;-4.40;83.80
69436;SHT31;56625;54.322;18.582;2023-02-28T01:03:16;-4.46;83.83
69436;SHT31;56625;54.322;18.582;2023-02-28T01:05:44;-4.48;84.16
69436;SHT31;56625;54.322;18.582;2023-02-28T01:08:12;-4.46;84.59
69436;SHT31;56625;54.322;18.582;2023-02-28T01:10:40;-4.43;84.94
69436;SHT31;56625;54.322;18.582;2023-02-28T01:13:07;-4.40;84.96
69436;SHT31;56625;54.322;18.582;2023-02-28T01:15:34;-4.40;84.92
69436;SHT31;56625;54.322;18.582;2023-02-28T01:18:00;-4.41;84.79
69436;SHT31;56625;54.322;18.582;2023-02-28T01:20:27;-4.43;84.67
69436;SHT31;56625;54.322;18.582;2023-02-28T01:22:53;-4.44;84.57
69436;SHT31;56625;54.322;18.582;2023-02-28T01:25:20;-4.45;84.42
69436;SHT31;56625;54.322;18.582;2023-02-28T01:27:46;-4.45;84.40
69436;SHT31;56625;54.322;18.582;2023-02-28T01:30:13;-4.45;84.50
69436;SHT31;56625;54.322;18.582;2023-02-28T01:32:40;-4.46;84.61
69436;SHT31;56625;54.322;18.582;2023-02-28T01:35:07;-4.47;84.50
69436;SHT31;56625;54.322;18.582;2023-02-28T01:37:33;-4.50;84.43
69436;SHT31;56625;54.322;18.582;2023-02-28T01:40:00;-4.51;84.50
69436;SHT31;56625;54.322;18.582;2023-02-28T01:42:26;-4.52;84.49
69436;SHT31;56625;54.322;18.582;2023-02-28T01:47:58;-4.57;84.56
69436;SHT31;56625;54.322;18.582;2023-02-28T01:50:33;-4.59;84.52
69436;SHT31;56625;54.322;18.582;2023-02-28T01:53:08;-4.59;84.60
69436;SHT31;56625;54.322;18.582;2023-02-28T01:55:45;-4.60;84.54
69436;SHT31;56625;54.322;18.582;2023-02-28T01:58:15;-4.60;84.57
69436;SHT31;56625;54.322;18.582;2023-02-28T02:00:42;-4.57;84.56
69436;SHT31;56625;54.322;18.582;2023-02-28T02:03:09;-4.55;84.48
69436;SHT31;56625;54.322;18.582;2023-02-28T02:05:43;-4.53;84.53
69436;SHT31;56625;54.322;18.582;2023-02-28T02:08:15;-4.53;84.43
69436;SHT31;56625;54.322;18.582;2023-02-28T02:10:54;-4.51;84.33
69436;SHT31;56625;54.322;18.582;2023-02-28T02:25:27;-4.49;84.59
69436;SHT31;56625;54.322;18.582;2023-02-28T02:34:17;-4.54;84.63
69436;SHT31;56625;54.322;18.582;2023-02-28T02:37:29;-4.51;84.68
69436;SHT31;56625;54.322;18.582;2023-02-28T02:40:26;-4.49;84.75
69436;SHT31;56625;54.322;18.582;2023-02-28T02:43:09;-4.48;84.74
69436;SHT31;56625;54.322;18.582;2023-02-28T02:45:46;-4.43;84.94
69436;SHT31;56625;54.322;18.582;2023-02-28T02:48:21;-4.39;84.78
69436;SHT31;56625;54.322;18.582;2023-02-28T02:50:55;-4.36;84.62
69436;SHT31;56625;54.322;18.582;2023-02-28T02:53:36;-4.36;84.40
69436;SHT31;56625;54.322;18.582;2023-02-28T02:56:10;-4.36;84.31
69436;SHT31;56625;54.322;18.582;2023-02-28T02:58:40;-4.32;84.38
69436;SHT31;56625;54.322;18.582;2023-02-28T03:01:18;-4.32;84.12
69436;SHT31;56625;54.322;18.582;2023-02-28T03:03:58;-4.35;83.82
69436;SHT31;56625;54.322;18.582;2023-02-28T03:06:28;-4.38;83.77
69436;SHT31;56625;54.322;18.582;2023-02-28T03:08:54;-4.36;84.06
69436;SHT31;56625;54.322;18.582;2023-02-28T03:11:21;-4.32;84.37
69436;SHT31;56625;54.322;18.582;2023-02-28T03:16:38;-4.35;83.93
69436;SHT31;56625;54.322;18.582;2023-02-28T03:19:47;-4.41;83.73
69436;SHT31;56625;54.322;18.582;2023-02-28T03:22:32;-4.46;83.69
69436;SHT31;56625;54.322;18.582;2023-02-28T03:25:04;-4.46;83.96
69436;SHT31;56625;54.322;18.582;2023-02-28T03:30:43;-4.52;83.74
69436;SHT31;56625;54.322;18.582;2023-02-28T03:33:15;-4.57;83.74
69436;SHT31;56625;54.322;18.582;2023-02-28T03:35:51;-4.60;83.90
69436;SHT31;56625;54.322;18.582;2023-02-28T03:38:28;-4.61;84.00
69436;SHT31;56625;54.322;18.582;2023-02-28T03:43:58;-4.63;83.93
69436;SHT31;56625;54.322;18.582;2023-02-28T03:46:32;-4.64;83.95
69436;SHT31;56625;54.322;18.582;2023-02-28T03:49:13;-4.66;83.97
69436;SHT31;56625;54.322;18.582;2023-02-28T03:51:49;-4.67;84.14
69436;SHT31;56625;54.322;18.582;2023-02-28T03:54:21;-4.66;84.20
69436;SHT31;56625;54.322;18.582;2023-02-28T03:56:57;-4.67;84.04
69436;SHT31;56625;54.322;18.582;2023-02-28T03:59:56;-4.69;84.21
69436;SHT31;56625;54.322;18.582;2023-02-28T04:02:32;-4.68;84.44
69436;SHT31;56625;54.322;18.582;2023-02-28T04:05:00;-4.66;84.65
69436;SHT31;56625;54.322;18.582;2023-02-28T04:07:31;-4.61;84.80
69436;SHT31;56625;54.322;18.582;2023-02-28T04:09:58;-4.59;84.83
69436;SHT31;56625;54.322;18.582;2023-02-28T04:12:25;-4.56;84.70
69436;SHT31;56625;54.322;18.582;2023-02-28T04:14:52;-4.56;84.60
69436;SHT31;56625;54.322;18.582;2023-02-28T04:17:19;-4.55;84.64
69436;SHT31;56625;54.322;18.582;2023-02-28T04:19:45;-4.53;84.79
69436;SHT31;56625;54.322;18.582;2023-02-28T04:22:12;-4.50;84.80
69436;SHT31;56625;54.322;18.582;2023-02-28T04:24:39;-4.46;84.76
69436;SHT31;56625;54.322;18.582;2023-02-28T04:27:09;-4.43;84.66
69436;SHT31;56625;54.322;18.582;2023-02-28T04:29:36;-4.40;84.50
69436;SHT31;56625;54.322;18.582;2023-02-28T04:32:02;-4.39;84.42
69436;SHT31;56625;54.322;18.582;2023-02-28T04:34:30;-4.39;84.30
69436;SHT31;56625;54.322;18.582;2023-02-28T04:36:58;-4.36;84.34
69436;SHT31;56625;54.322;18.582;2023-02-28T04:39:38;-4.36;84.36
69436;SHT31;56625;54.322;18.582;2023-02-28T04:42:06;-4.37;84.19
69436;SHT31;56625;54.322;18.582;2023-02-28T04:44:34;-4.40;84.12
69436;SHT31;56625;54.322;18.582;2023-02-28T04:47:00;-4.40;84.39
69436;SHT31;56625;54.322;18.582;2023-02-28T04:49:27;-4.41;84.50
69436;SHT31;56625;54.322;18.582;2023-02-28T04:51:53;-4.40;84.57
69436;SHT31;56625;54.322;18.582;2023-02-28T04:54:20;-4.38;84.55
69436;SHT31;56625;54.322;18.582;2023-02-28T04:56:46;-4.37;84.53
69436;SHT31;56625;54.322;18.582;2023-02-28T04:59:15;-4.38;84.50
69436;SHT31;56625;54.322;18.582;2023-02-28T05:01:44;-4.36;84.56
69436;SHT31;56625;54.322;18.582;2023-02-28T05:04:13;-4.36;84.48
69436;SHT31;56625;54.322;18.582;2023-02-28T05:06:41;-4.37;84.35
69436;SHT31;56625;54.322;18.582;2023-02-28T05:09:07;-4.37;84.39
69436;SHT31;56625;54.322;18.582;2023-02-28T05:11:39;-4.38;84.39
69436;SHT31;56625;54.322;18.582;2023-02-28T05:14:09;-4.37;84.36
69436;SHT31;56625;54.322;18.582;2023-02-28T05:16:39;-4.38;84.33
69436;SHT31;56625;54.322;18.582;2023-02-28T05:19:06;-4.40;84.25
69436;SHT31;56625;54.322;18.582;2023-02-28T05:21:34;-4.40;84.21
69436;SHT31;56625;54.322;18.582;2023-02-28T05:24:05;-4.43;84.19
69436;SHT31;56625;54.322;18.582;2023-02-28T05:26:38;-4.42;84.16
69436;SHT31;56625;54.322;18.582;2023-02-28T05:29:07;-4.43;84.14
69436;SHT31;56625;54.322;18.582;2023-02-28T05:31:37;-4.41;84.09
69436;SHT31;56625;54.322;18.582;2023-02-28T05:34:04;-4.41;84.10
69436;SHT31;56625;54.322;18.582;2023-02-28T05:36:31;-4.40;84.02
69436;SHT31;56625;54.322;18.582;2023-02-28T05:38:58;-4.39;84.04
69436;SHT31;56625;54.322;18.582;2023-02-28T05:41:25;-4.37;84.19
69436;SHT31;56625;54.322;18.582;2023-02-28T05:43:52;-4.35;84.20
69436;SHT31;56625;54.322;18.582;2023-02-28T05:46:18;-4.33;84.20
69436;SHT31;56625;54.322;18.582;2023-02-28T05:48:46;-4.29;84.18
69436;SHT31;56625;54.322;18.582;2023-02-28T05:51:14;-4.25;84.05
69436;SHT31;56625;54.322;18.582;2023-02-28T05:53:41;-4.20;83.98
69436;SHT31;56625;54.322;18.582;2023-02-28T05:56:07;-4.17;83.83
69436;SHT31;56625;54.322;18.582;2023-02-28T05:58:34;-4.14;83.64
69436;SHT31;56625;54.322;18.582;2023-02-28T06:01:11;-4.09;83.56
69436;SHT31;56625;54.322;18.582;2023-02-28T06:04:08;-4.02;83.50
69436;SHT31;56625;54.322;18.582;2023-02-28T06:06:51;-3.95;83.40
69436;SHT31;56625;54.322;18.582;2023-02-28T06:09:18;-3.89;83.24
69436;SHT31;56625;54.322;18.582;2023-02-28T06:11:45;-3.81;83.07
69436;SHT31;56625;54.322;18.582;2023-02-28T06:14:15;-3.73;82.88
69436;SHT31;56625;54.322;18.582;2023-02-28T06:16:44;-3.66;82.56
69436;SHT31;56625;54.322;18.582;2023-02-28T06:19:11;-3.59;82.30
69436;SHT31;56625;54.322;18.582;2023-02-28T06:21:37;-3.52;82.09
69436;SHT31;56625;54.322;18.582;2023-02-28T06:24:04;-3.47;81.85
69436;SHT31;56625;54.322;18.582;2023-02-28T06:26:31;-3.45;81.57
69436;SHT31;56625;54.322;18.582;2023-02-28T06:28:58;-3.42;81.37
69436;SHT31;56625;54.322;18.582;2023-02-28T06:31:24;-3.38;81.28
69436;SHT31;56625;54.322;18.582;2023-02-28T06:33:52;-3.31;81.34
69436;SHT31;56625;54.322;18.582;2023-02-28T06:36:18;-3.21;81.33
69436;SHT31;56625;54.322;18.582;2023-02-28T06:38:45;-3.08;81.15
69436;SHT31;56625;54.322;18.582;2023-02-28T06:41:11;-2.98;81.00
69436;SHT31;56625;54.322;18.582;2023-02-28T06:43:39;-2.86;80.78
69436;SHT31;56625;54.322;18.582;2023-02-28T06:46:09;-2.73;80.62
69436;SHT31;56625;54.322;18.582;2023-02-28T06:48:40;-2.59;80.39
69436;SHT31;56625;54.322;18.582;2023-02-28T06:51:13;-2.46;80.27
69436;SHT31;56625;54.322;18.582;2023-02-28T06:53:50;-2.32;80.07
69436;SHT31;56625;54.322;18.582;2023-02-28T06:56:18;-2.16;80.09
69436;SHT31;56625;54.322;18.582;2023-02-28T06:58:46;-2.01;79.92
69436;SHT31;56625;54.322;18.582;2023-02-28T07:01:15;-1.86;79.60
69436;SHT31;56625;54.322;18.582;2023-02-28T07:03:43;-1.73;79.23
69436;SHT31;56625;54.322;18.582;2023-02-28T07:06:09;-1.59;79.13
69436;SHT31;56625;54.322;18.582;2023-02-28T07:08:36;-1.45;79.00
69436;SHT31;56625;54.322;18.582;2023-02-28T07:11:03;-1.29;78.78
69436;SHT31;56625;54.322;18.582;2023-02-28T07:13:30;-1.14;78.35
69436;SHT31;56625;54.322;18.582;2023-02-28T07:15:58;-0.99;77.90
69436;SHT31;56625;54.322;18.582;2023-02-28T07:18:31;-0.82;77.92
69436;SHT31;56625;54.322;18.582;2023-02-28T07:20:58;-0.67;77.47
69436;SHT31;56625;54.322;18.582;2023-02-28T07:23:30;-0.54;76.71
69436;SHT31;56625;54.322;18.582;2023-02-28T07:25:57;-0.44;76.23
69436;SHT31;56625;54.322;18.582;2023-02-28T07:28:23;-0.33;76.06
69436;SHT31;56625;54.322;18.582;2023-02-28T07:30:51;-0.19;75.98
69436;SHT31;56625;54.322;18.582;2023-02-28T07:33:18;-0.05;75.59
69436;SHT31;56625;54.322;18.582;2023-02-28T07:35:45;0.10;75.31
69436;SHT31;56625;54.322;18.582;2023-02-28T07:38:11;0.24;75.12
69436;SHT31;56625;54.322;18.582;2023-02-28T07:40:39;0.40;74.40
69436;SHT31;56625;54.322;18.582;2023-02-28T07:43:06;0.52;73.58
69436;SHT31;56625;54.322;18.582;2023-02-28T07:45:32;0.63;73.40
69436;SHT31;56625;54.322;18.582;2023-02-28T07:48:00;0.77;73.07
69436;SHT31;56625;54.322;18.582;2023-02-28T07:50:28;0.86;72.70
69436;SHT31;56625;54.322;18.582;2023-02-28T07:52:58;1.02;72.73
69436;SHT31;56625;54.322;18.582;2023-02-28T07:55:25;1.14;71.70
69436;SHT31;56625;54.322;18.582;2023-02-28T07:57:52;1.18;70.98
69436;SHT31;56625;54.322;18.582;2023-02-28T08:00:19;1.24;70.71
69436;SHT31;56625;54.322;18.582;2023-02-28T08:02:46;1.32;70.87
69436;SHT31;56625;54.322;18.582;2023-02-28T08:05:12;1.47;70.74
69436;SHT31;56625;54.322;18.582;2023-02-28T08:07:39;1.58;70.03
69436;SHT31;56625;54.322;18.582;2023-02-28T08:10:05;1.66;69.65
69436;SHT31;56625;54.322;18.582;2023-02-28T08:12:34;1.72;69.15
69436;SHT31;56625;54.322;18.582;2023-02-28T08:15:01;1.77;68.61
69436;SHT31;56625;54.322;18.582;2023-02-28T08:17:28;1.83;68.38
69436;SHT31;56625;54.322;18.582;2023-02-28T08:19:54;1.82;67.76
69436;SHT31;56625;54.322;18.582;2023-02-28T08:22:21;1.82;67.69
69436;SHT31;56625;54.322;18.582;2023-02-28T08:24:47;1.87;68.01
69436;SHT31;56625;54.322;18.582;2023-02-28T08:27:15;2.30;70.84
69436;SHT31;56625;54.322;18.582;2023-02-28T08:29:41;2.79;71.18
69436;SHT31;56625;54.322;18.582;2023-02-28T08:32:08;3.29;66.28
69436;SHT31;56625;54.322;18.582;2023-02-28T08:34:46;3.15;64.41
69436;SHT31;56625;54.322;18.582;2023-02-28T08:37:13;3.11;65.08
69436;SHT31;56625;54.322;18.582;2023-02-28T08:39:40;3.17;64.64
69436;SHT31;56625;54.322;18.582;2023-02-28T08:42:09;3.15;63.02
69436;SHT31;56625;54.322;18.582;2023-02-28T08:44:35;3.08;63.09
69436;SHT31;56625;54.322;18.582;2023-02-28T08:47:02;3.05;62.86
69436;SHT31;56625;54.322;18.582;2023-02-28T08:49:28;3.02;62.91
69436;SHT31;56625;54.322;18.582;2023-02-28T08:51:55;3.07;63.03
69436;SHT31;56625;54.322;18.582;2023-02-28T08:54:23;3.13;62.74
69436;SHT31;56625;54.322;18.582;2023-02-28T08:56:50;3.25;63.10
69436;SHT31;56625;54.322;18.582;2023-02-28T08:59:17;3.32;61.98
69436;SHT31;56625;54.322;18.582;2023-02-28T09:01:43;3.33;61.23
69436;SHT31;56625;54.322;18.582;2023-02-28T09:04:10;3.37;61.86
69436;SHT31;56625;54.322;18.582;2023-02-28T09:06:38;3.57;62.14
69436;SHT31;56625;54.322;18.582;2023-02-28T09:09:05;3.62;61.02
69436;SHT31;56625;54.322;18.582;2023-02-28T09:11:34;3.60;60.95
69436;SHT31;56625;54.322;18.582;2023-02-28T09:14:01;3.69;61.52
69436;SHT31;56625;54.322;18.582;2023-02-28T09:16:30;3.85;60.76
69436;SHT31;56625;54.322;18.582;2023-02-28T09:18:59;3.80;59.81
69436;SHT31;56625;54.322;18.582;2023-02-28T09:21:26;3.82;60.44
69436;SHT31;56625;54.322;18.582;2023-02-28T09:23:54;3.90;59.87
69436;SHT31;56625;54.322;18.582;2023-02-28T09:26:25;3.95;59.77
69436;SHT31;56625;54.322;18.582;2023-02-28T09:29:04;4.02;59.88
69436;SHT31;56625;54.322;18.582;2023-02-28T09:31:31;4.07;59.37
69436;SHT31;56625;54.322;18.582;2023-02-28T09:33:57;4.11;59.66
69436;SHT31;56625;54.322;18.582;2023-02-28T09:36:26;4.16;59.28
69436;SHT31;56625;54.322;18.582;2023-02-28T09:39:09;4.18;59.65
69436;SHT31;56625;54.322;18.582;2023-02-28T09:41:39;4.25;59.54
69436;SHT31;56625;54.322;18.582;2023-02-28T09:44:30;4.30;59.34
69436;SHT31;56625;54.322;18.582;2023-02-28T09:47:14;4.33;59.52
69436;SHT31;56625;54.322;18.582;2023-02-28T09:49:55;4.49;59.71
69436;SHT31;56625;54.322;18.582;2023-02-28T09:52:30;4.70;59.81
69436;SHT31;56625;54.322;18.582;2023-02-28T09:55:15;4.94;59.94
69436;SHT31;56625;54.322;18.582;2023-02-28T09:57:50;5.05;57.97
69436;SHT31;56625;54.322;18.582;2023-02-28T10:00:18;5.11;57.93
69436;SHT31;56625;54.322;18.582;2023-02-28T10:08:25;5.03;57.30
69436;SHT31;56625;54.322;18.582;2023-02-28T10:10:59;5.12;57.15
69436;SHT31;56625;54.322;18.582;2023-02-28T10:19:44;5.39;56.02
69436;SHT31;56625;54.322;18.582;2023-02-28T10:22:25;5.40;55.91
69436;SHT31;56625;54.322;18.582;2023-02-28T10:25:00;5.50;55.60
69436;SHT31;56625;54.322;18.582;2023-02-28T10:27:32;5.46;54.96
69436;SHT31;56625;54.322;18.582;2023-02-28T10:29:59;5.46;54.56
69436;SHT31;56625;54.322;18.582;2023-02-28T10:32:32;5.43;53.90
69436;SHT31;56625;54.322;18.582;2023-02-28T10:37:50;5.62;54.39
69436;SHT31;56625;54.322;18.582;2023-02-28T10:40:30;5.69;52.87
69436;SHT31;56625;54.322;18.582;2023-02-28T10:43:05;5.72;53.16
69436;SHT31;56625;54.322;18.582;2023-02-28T10:48:30;5.75;52.07
69436;SHT31;56625;54.322;18.582;2023-02-28T10:51:54;5.74;52.28
69436;SHT31;56625;54.322;18.582;2023-02-28T10:54:29;5.79;51.86
69436;SHT31;56625;54.322;18.582;2023-02-28T10:59:53;5.91;53.00
69436;SHT31;56625;54.322;18.582;2023-02-28T11:02:39;6.11;53.11
69436;SHT31;56625;54.322;18.582;2023-02-28T11:05:29;6.38;52.70
69436;SHT31;56625;54.322;18.582;2023-02-28T11:10:38;6.51;49.98
69436;SHT31;56625;54.322;18.582;2023-02-28T11:13:06;6.46;48.97
69436;SHT31;56625;54.322;18.582;2023-02-28T11:15:33;6.41;49.77
69436;SHT31;56625;54.322;18.582;2023-02-28T11:20:59;6.32;49.06
69436;SHT31;56625;54.322;18.582;2023-02-28T11:23:28;6.28;48.99
69436;SHT31;56625;54.322;18.582;2023-02-28T11:26:03;6.20;48.74
69436;SHT31;56625;54.322;18.582;2023-02-28T11:28:35;6.12;48.00
69436;SHT31;56625;54.322;18.582;2023-02-28T11:36:21;6.19;47.96
69436;SHT31;56625;54.322;18.582;2023-02-28T11:39:07;6.23;47.15
69436;SHT31;56625;54.322;18.582;2023-02-28T11:47:56;6.36;44.40
69436;SHT31;56625;54.322;18.582;2023-02-28T11:53:22;6.31;44.72
69436;SHT31;56625;54.322;18.582;2023-02-28T11:56:38;6.39;44.95
69436;SHT31;56625;54.322;18.582;2023-02-28T12:05:24;6.53;45.68
69436;SHT31;56625;54.322;18.582;2023-02-28T12:08:30;6.63;45.74
69436;SHT31;56625;54.322;18.582;2023-02-28T12:20:24;6.35;46.35
69436;SHT31;56625;54.322;18.582;2023-02-28T12:28:48;6.45;46.38
69436;SHT31;56625;54.322;18.582;2023-02-28T12:31:42;6.51;47.47
69436;SHT31;56625;54.322;18.582;2023-02-28T12:34:29;6.66;46.30
69436;SHT31;56625;54.322;18.582;2023-02-28T12:37:16;6.70;45.75
69436;SHT31;56625;54.322;18.582;2023-02-28T12:39:52;6.68;46.42
69436;SHT31;56625;54.322;18.582;2023-02-28T12:42:30;6.75;46.38
69436;SHT31;56625;54.322;18.582;2023-02-28T12:45:25;6.87;47.19
69436;SHT31;56625;54.322;18.582;2023-02-28T12:48:20;6.89;45.30
69436;SHT31;56625;54.322;18.582;2023-02-28T12:50:55;6.81;45.58
69436;SHT31;56625;54.322;18.582;2023-02-28T12:53:43;6.76;46.04
69436;SHT31;56625;54.322;18.582;2023-02-28T13:02:31;6.48;46.75
69436;SHT31;56625;54.322;18.582;2023-02-28T13:05:24;6.51;47.84
69436;SHT31;56625;54.322;18.582;2023-02-28T13:08:15;6.62;47.58
69436;SHT31;56625;54.322;18.582;2023-02-28T13:11:30;6.67;47.04
69436;SHT31;56625;54.322;18.582;2023-02-28T13:14:41;6.72;46.96
69436;SHT31;56625;54.322;18.582;2023-02-28T13:17:02;6.74;47.04
69436;SHT31;56625;54.322;18.582;2023-02-28T13:19:40;6.76;47.51
69436;SHT31;56625;54.322;18.582;2023-02-28T13:27:49;6.76;47.86
69436;SHT31;56625;54.322;18.582;2023-02-28T13:33:30;6.70;47.64
69436;SHT31;56625;54.322;18.582;2023-02-28T13:41:37;6.59;47.58
69436;SHT31;56625;54.322;18.582;2023-02-28T13:47:16;6.50;48.25
69436;SHT31;56625;54.322;18.582;2023-02-28T13:49:47;6.49;48.10
69436;SHT31;56625;54.322;18.582;2023-02-28T13:52:17;6.47;48.20
69436;SHT31;56625;54.322;18.582;2023-02-28T13:54:59;6.47;48.08
69436;SHT31;56625;54.322;18.582;2023-02-28T13:58:04;6.43;47.77
69436;SHT31;56625;54.322;18.582;2023-02-28T14:03:41;6.38;47.72
69436;SHT31;56625;54.322;18.582;2023-02-28T14:06:38;6.26;47.85
69436;SHT31;56625;54.322;18.582;2023-02-28T14:09:33;6.10;48.40
69436;SHT31;56625;54.322;18.582;2023-02-28T14:15:27;5.99;49.69
69436;SHT31;56625;54.322;18.582;2023-02-28T14:18:21;5.93;49.96
69436;SHT31;56625;54.322;18.582;2023-02-28T14:21:02;5.86;50.16
69436;SHT31;56625;54.322;18.582;2023-02-28T14:23:40;5.81;50.56
69436;SHT31;56625;54.322;18.582;2023-02-28T14:26:46;5.78;50.81
69436;SHT31;56625;54.322;18.582;2023-02-28T14:38:08;5.76;51.04
69436;SHT31;56625;54.322;18.582;2023-02-28T14:40:47;5.76;51.46
69436;SHT31;56625;54.322;18.582;2023-02-28T14:43:24;5.74;51.40
69436;SHT31;56625;54.322;18.582;2023-02-28T14:45:54;5.70;51.58
69436;SHT31;56625;54.322;18.582;2023-02-28T14:48:25;5.70;52.14
69436;SHT31;56625;54.322;18.582;2023-02-28T14:50:56;5.70;52.51
69436;SHT31;56625;54.322;18.582;2023-02-28T14:53:27;5.73;52.61
69436;SHT31;56625;54.322;18.582;2023-02-28T14:56:01;5.75;53.05
69436;SHT31;56625;54.322;18.582;2023-02-28T14:58:29;5.79;53.15
69436;SHT31;56625;54.322;18.582;2023-02-28T15:01:03;5.80;53.32
69436;SHT31;56625;54.322;18.582;2023-02-28T15:03:31;5.78;53.30
69436;SHT31;56625;54.322;18.582;2023-02-28T15:06:03;5.75;53.19
69436;SHT31;56625;54.322;18.582;2023-02-28T15:08:44;5.71;53.54
69436;SHT31;56625;54.322;18.582;2023-02-28T15:11:15;5.66;53.74
69436;SHT31;56625;54.322;18.582;2023-02-28T15:13:46;5.61;53.97
69436;SHT31;56625;54.322;18.582;2023-02-28T15:16:17;5.57;54.27
69436;SHT31;56625;54.322;18.582;2023-02-28T15:26:59;5.34;55.85
69436;SHT31;56625;54.322;18.582;2023-02-28T15:29:32;5.27;56.13
69436;SHT31;56625;54.322;18.582;2023-02-28T15:32:29;5.20;56.67
69436;SHT31;56625;54.322;18.582;2023-02-28T15:34:58;5.15;56.88
69436;SHT31;56625;54.322;18.582;2023-02-28T15:37:56;5.09;57.21
69436;SHT31;56625;54.322;18.582;2023-02-28T15:40:41;5.02;57.23
69436;SHT31;56625;54.322;18.582;2023-02-28T15:43:30;4.97;57.52
69436;SHT31;56625;54.322;18.582;2023-02-28T15:46:02;4.93;57.76
69436;SHT31;56625;54.322;18.582;2023-02-28T15:48:37;4.92;57.88
69436;SHT31;56625;54.322;18.582;2023-02-28T15:51:16;4.93;58.00
69436;SHT31;56625;54.322;18.582;2023-02-28T15:53:56;4.87;58.28
69436;SHT31;56625;54.322;18.582;2023-02-28T15:56:32;4.76;58.76
69436;SHT31;56625;54.322;18.582;2023-02-28T15:59:05;4.65;58.90
69436;SHT31;56625;54.322;18.582;2023-02-28T16:01:44;4.54;59.28
69436;SHT31;56625;54.322;18.582;2023-02-28T16:04:16;4.42;59.56
69436;SHT31;56625;54.322;18.582;2023-02-28T16:06:46;4.33;59.91
69436;SHT31;56625;54.322;18.582;2023-02-28T16:09:28;4.23;60.35
69436;SHT31;56625;54.322;18.582;2023-02-28T16:12:00;4.13;60.80
69436;SHT31;56625;54.322;18.582;2023-02-28T16:14:29;4.03;61.15
69436;SHT31;56625;54.322;18.582;2023-02-28T16:17:01;3.95;61.27
69436;SHT31;56625;54.322;18.582;2023-02-28T16:19:31;3.88;61.41
69436;SHT31;56625;54.322;18.582;2023-02-28T16:22:01;3.81;61.64
69436;SHT31;56625;54.322;18.582;2023-02-28T16:24:27;3.74;61.92
69436;SHT31;56625;54.322;18.582;2023-02-28T16:26:55;3.65;62.32
69436;SHT31;56625;54.322;18.582;2023-02-28T16:31:57;3.50;62.56
69436;SHT31;56625;54.322;18.582;2023-02-28T16:34:24;3.44;62.58
69436;SHT31;56625;54.322;18.582;2023-02-28T16:36:52;3.36;62.68
69436;SHT31;56625;54.322;18.582;2023-02-28T16:39:19;3.30;62.75
69436;SHT31;56625;54.322;18.582;2023-02-28T16:41:51;3.24;62.90
69436;SHT31;56625;54.322;18.582;2023-02-28T16:44:28;3.20;63.07
69436;SHT31;56625;54.322;18.582;2023-02-28T16:47:00;3.15;63.19
69436;SHT31;56625;54.322;18.582;2023-02-28T16:49:29;3.13;63.20
69436;SHT31;56625;54.322;18.582;2023-02-28T16:51:56;3.09;63.24
69436;SHT31;56625;54.322;18.582;2023-02-28T16:54:23;3.05;63.49
69436;SHT31;56625;54.322;18.582;2023-02-28T16:56:50;2.99;63.79
69436;SHT31;56625;54.322;18.582;2023-02-28T16:59:18;2.91;64.16
69436;SHT31;56625;54.322;18.582;2023-02-28T17:01:50;2.82;64.75
69436;SHT31;56625;54.322;18.582;2023-02-28T17:04:18;2.75;64.91
69436;SHT31;56625;54.322;18.582;2023-02-28T17:06:45;2.71;64.86
69436;SHT31;56625;54.322;18.582;2023-02-28T17:09:20;2.67;64.96
69436;SHT31;56625;54.322;18.582;2023-02-28T17:11:56;2.63;65.30
69436;SHT31;56625;54.322;18.582;2023-02-28T17:14:23;2.57;65.72
69436;SHT31;56625;54.322;18.582;2023-02-28T17:16:49;2.48;65.99
69436;SHT31;56625;54.322;18.582;2023-02-28T17:19:16;2.39;66.41
69436;SHT31;56625;54.322;18.582;2023-02-28T17:21:44;2.30;66.66
69436;SHT31;56625;54.322;18.582;2023-02-28T17:24:11;2.26;66.93
69436;SHT31;56625;54.322;18.582;2023-02-28T17:26:42;2.21;66.98
69436;SHT31;56625;54.322;18.582;2023-02-28T17:29:19;2.18;67.14
69436;SHT31;56625;54.322;18.582;2023-02-28T17:31:47;2.16;67.00
69436;SHT31;56625;54.322;18.582;2023-02-28T17:34:14;2.16;66.94
69436;SHT31;56625;54.322;18.582;2023-02-28T17:36:44;2.16;66.88
69436;SHT31;56625;54.322;18.582;2023-02-28T17:39:14;2.16;66.90
69436;SHT31;56625;54.322;18.582;2023-02-28T17:41:50;2.15;66.90
69436;SHT31;56625;54.322;18.582;2023-02-28T17:44:18;2.15;66.89
69436;SHT31;56625;54.322;18.582;2023-02-28T17:46:46;2.12;66.96
69436;SHT31;56625;54.322;18.582;2023-02-28T17:49:14;2.11;66.99
69436;SHT31;56625;54.322;18.582;2023-02-28T17:51:41;2.08;67.10
69436;SHT31;56625;54.322;18.582;2023-02-28T17:54:07;2.05;67.33
69436;SHT31;56625;54.322;18.582;2023-02-28T17:56:34;2.01;67.40
69436;SHT31;56625;54.322;18.582;2023-02-28T17:59:01;1.98;67.49
69436;SHT31;56625;54.322;18.582;2023-02-28T18:01:29;1.95;67.51
69436;SHT31;56625;54.322;18.582;2023-02-28T18:03:55;1.92;67.51
69436;SHT31;56625;54.322;18.582;2023-02-28T18:06:23;1.91;67.46
69436;SHT31;56625;54.322;18.582;2023-02-28T18:08:54;1.91;67.34
69436;SHT31;56625;54.322;18.582;2023-02-28T18:11:22;1.90;67.30
69436;SHT31;56625;54.322;18.582;2023-02-28T18:13:50;1.90;67.30
69436;SHT31;56625;54.322;18.582;2023-02-28T18:16:20;1.89;67.30
69436;SHT31;56625;54.322;18.582;2023-02-28T18:18:48;1.88;67.31